createdAt,value
2023-02-18T00:04:43.714Z,1004.75
2023-02-18T00:09:43.660Z,1004.83
2023-02-18T00:14:43.780Z,1004.70
2023-02-18T00:19:43.545Z,1004.58
2023-02-18T00:24:43.481Z,1004.75
2023-02-18T00:29:43.391Z,1004.63
2023-02-18T00:34:43.346Z,1004.72
2023-02-18T00:39:43.248Z,1004.75
2023-02-18T00:44:43.186Z,1004.71
2023-02-18T00:49:43.146Z,1004.75
2023-02-18T00:54:43.065Z,1004.75
2023-02-18T00:59:43.009Z,1004.82
2023-02-18T01:04:42.949Z,1004.82
2023-02-18T01:09:42.874Z,1004.77
2023-02-18T01:14:42.802Z,1004.93
2023-02-18T01:19:42.736Z,1004.89
2023-02-18T01:24:43.130Z,1004.86
2023-02-18T01:29:42.585Z,1004.85
2023-02-18T01:34:42.521Z,1004.84
2023-02-18T01:39:42.451Z,1004.69
2023-02-18T01:44:42.389Z,1004.73
2023-02-18T01:49:42.354Z,1004.77
2023-02-18T01:54:42.286Z,1004.72
2023-02-18T01:59:42.192Z,1004.80
2023-02-18T02:04:42.133Z,1004.79
2023-02-18T02:09:42.082Z,1004.73
2023-02-18T02:14:41.981Z,1004.87
2023-02-18T02:19:41.948Z,1004.98
2023-02-18T02:24:41.915Z,1005.03
2023-02-18T02:29:41.795Z,1004.91
2023-02-18T02:34:41.715Z,1004.91
2023-02-18T02:39:41.666Z,1004.93
2023-02-18T02:44:41.598Z,1004.87
2023-02-18T02:49:41.524Z,1004.96
2023-02-18T02:54:41.514Z,1004.96
2023-02-18T02:59:41.401Z,1004.80
2023-02-18T03:04:41.397Z,1004.78
2023-02-18T03:09:41.282Z,1004.77
2023-02-18T03:14:41.195Z,1004.83
2023-02-18T03:19:41.104Z,1004.86
2023-02-18T03:24:41.064Z,1004.92
2023-02-18T03:29:40.978Z,1004.89
2023-02-18T03:34:40.901Z,1004.79
2023-02-18T03:39:40.878Z,1004.84
2023-02-18T03:44:40.782Z,1004.94
2023-02-18T03:49:40.709Z,1004.85
2023-02-18T03:54:40.666Z,1004.88
2023-02-18T03:59:40.621Z,1004.83
2023-02-18T04:04:40.530Z,1004.92
2023-02-18T04:09:40.459Z,1004.90
2023-02-18T04:14:40.385Z,1004.93
2023-02-18T04:19:40.334Z,1004.93
2023-02-18T04:24:40.250Z,1005.08
2023-02-18T04:29:40.179Z,1004.97
2023-02-18T04:34:40.103Z,1004.97
2023-02-18T04:39:40.054Z,1004.89
2023-02-18T04:44:39.976Z,1004.72
2023-02-18T04:49:39.918Z,1004.84
2023-02-18T04:54:39.840Z,1004.85
2023-02-18T04:59:39.774Z,1004.97
2023-02-18T05:04:39.707Z,1004.93
2023-02-18T05:09:39.688Z,1004.88
2023-02-18T05:14:39.586Z,1004.86
2023-02-18T05:19:39.523Z,1004.78
2023-02-18T05:24:39.447Z,1004.64
2023-02-18T05:29:39.357Z,1004.74
2023-02-18T05:34:39.283Z,1004.59
2023-02-18T05:39:39.216Z,1004.62
2023-02-18T05:44:39.201Z,1004.50
2023-02-18T05:49:39.125Z,1004.50
2023-02-18T05:54:39.018Z,1004.45
2023-02-18T05:59:38.956Z,1004.44
2023-02-18T06:04:38.876Z,1004.35
2023-02-18T06:09:38.828Z,1004.35
2023-02-18T06:14:40.868Z,1004.37
2023-02-18T06:19:38.680Z,1004.43
2023-02-18T06:24:38.626Z,1004.46
2023-02-18T06:29:38.609Z,1004.40
2023-02-18T06:34:38.522Z,1004.35
2023-02-18T06:39:38.464Z,1004.42
2023-02-18T06:44:38.350Z,1004.35
2023-02-18T06:49:38.340Z,1004.23
2023-02-18T06:54:38.286Z,1004.17
2023-02-18T06:59:38.249Z,1004.21
2023-02-18T07:04:38.060Z,1004.20
2023-02-18T07:09:38.093Z,1004.13
2023-02-18T07:14:37.958Z,1004.14
2023-02-18T07:19:38.532Z,1004.03
2023-02-18T07:24:37.887Z,1003.91
2023-02-18T07:29:38.729Z,1003.88
2023-02-18T07:34:37.787Z,1003.74
2023-02-18T07:39:37.621Z,1003.68
2023-02-18T07:44:37.582Z,1003.63
2023-02-18T07:49:37.591Z,1003.69
2023-02-18T07:54:37.411Z,1003.54
2023-02-18T07:59:37.418Z,1003.44
2023-02-18T08:04:37.327Z,1003.46
2023-02-18T08:09:37.296Z,1003.31
2023-02-18T08:14:37.193Z,1003.24
2023-02-18T08:19:37.084Z,1003.16
2023-02-18T08:24:37.067Z,1003.10
2023-02-18T08:29:36.985Z,1003.02
2023-02-18T08:34:37.221Z,1002.93
2023-02-18T08:39:39.295Z,1002.86
2023-02-18T08:44:36.991Z,1002.63
2023-02-18T08:49:36.879Z,1002.64
2023-02-18T08:54:45.169Z,1002.59
2023-02-18T08:59:36.619Z,1002.43
2023-02-18T09:04:36.479Z,1002.39
2023-02-18T09:09:36.785Z,1002.35
2023-02-18T09:14:36.347Z,1002.22
2023-02-18T09:19:36.369Z,1002.11
2023-02-18T09:24:36.198Z,1002.07
2023-02-18T09:29:36.235Z,1001.95
2023-02-18T09:34:36.083Z,1001.89
2023-02-18T09:39:36.014Z,1001.84
2023-02-18T09:44:36.248Z,1001.69
2023-02-18T09:49:37.090Z,1001.51
2023-02-18T09:54:35.815Z,1001.54
2023-02-18T09:59:35.772Z,1001.49
2023-02-18T10:04:35.956Z,1001.36
2023-02-18T10:09:36.678Z,1001.26
2023-02-18T10:14:35.942Z,1001.16
2023-02-18T10:19:35.487Z,1001.06
2023-02-18T10:24:35.446Z,1000.98
2023-02-18T10:29:35.438Z,1000.89
2023-02-18T10:34:35.304Z,1000.78
2023-02-18T10:39:35.338Z,1000.76
2023-02-18T10:44:35.148Z,1000.64
2023-02-18T10:49:35.273Z,1000.57
2023-02-18T10:54:35.161Z,1000.50
2023-02-18T10:59:35.071Z,1000.37
2023-02-18T11:04:35.192Z,1000.19
2023-02-18T11:09:35.019Z,1000.01
2023-02-18T11:14:34.911Z,999.87
2023-02-18T11:19:34.754Z,999.64
2023-02-18T11:24:34.811Z,999.50
2023-02-18T11:29:34.706Z,999.51
2023-02-18T11:34:34.717Z,999.63
2023-02-18T11:39:34.547Z,999.28
2023-02-18T11:44:34.504Z,999.22
2023-02-18T11:49:34.414Z,999.12
2023-02-18T11:54:34.331Z,999.04
2023-02-18T11:59:34.960Z,999.09
2023-02-18T12:04:34.148Z,998.92
2023-02-18T12:09:34.258Z,999.07
2023-02-18T12:14:33.981Z,998.94
2023-02-18T12:19:33.936Z,998.97
2023-02-18T12:24:33.999Z,999.04
2023-02-18T12:29:36.049Z,998.86
2023-02-18T12:34:33.872Z,998.89
2023-02-18T12:39:35.966Z,998.65
2023-02-18T12:44:33.609Z,998.85
2023-02-18T12:49:33.561Z,998.93
2023-02-18T12:54:33.480Z,998.86
2023-02-18T12:59:33.455Z,998.98
2023-02-18T13:04:36.549Z,998.96
2023-02-18T13:09:33.237Z,998.93
2023-02-18T13:14:33.179Z,998.85
2023-02-18T13:19:33.164Z,998.76
2023-02-18T13:24:33.091Z,998.65
2023-02-18T13:29:33.033Z,998.75
2023-02-18T13:34:32.910Z,998.76
2023-02-18T13:39:32.826Z,998.77
2023-02-18T13:44:33.752Z,998.79
2023-02-18T13:49:32.685Z,999.00
2023-02-18T13:54:32.735Z,998.90
2023-02-18T13:59:32.802Z,998.82
2023-02-18T14:04:32.691Z,999.11
2023-02-18T14:09:32.507Z,998.93
2023-02-18T14:14:32.398Z,998.83
2023-02-18T14:19:32.407Z,998.74
2023-02-18T14:24:32.402Z,999.00
2023-02-18T14:29:32.522Z,998.84
2023-02-18T14:34:32.341Z,998.70
2023-02-18T14:39:32.253Z,998.83
2023-02-18T14:44:33.338Z,999.08
2023-02-18T14:49:32.688Z,999.08
2023-02-18T14:54:33.344Z,999.08
2023-02-18T14:59:32.259Z,999.03
2023-02-18T15:04:32.057Z,999.32
2023-02-18T15:09:31.950Z,999.40
2023-02-18T15:14:31.886Z,999.48
2023-02-18T15:19:31.770Z,999.45
2023-02-18T15:24:31.535Z,999.31
2023-02-18T15:29:31.448Z,999.33
2023-02-18T15:34:31.449Z,999.44
2023-02-18T15:39:31.725Z,999.39
2023-02-18T15:44:31.379Z,999.40
2023-02-18T15:49:31.163Z,999.32
2023-02-18T15:54:31.104Z,999.37
2023-02-18T15:59:31.036Z,999.25
2023-02-18T16:04:30.976Z,999.16
2023-02-18T16:09:30.945Z,999.41
2023-02-18T16:14:30.862Z,999.48
2023-02-18T16:19:30.802Z,999.69
2023-02-18T16:24:30.733Z,999.63
2023-02-18T16:29:30.639Z,999.63
2023-02-18T16:34:30.641Z,999.69
2023-02-18T16:39:30.537Z,999.73
2023-02-18T16:44:30.486Z,999.67
2023-02-18T16:49:30.383Z,999.78
2023-02-18T16:54:30.407Z,999.98
2023-02-18T16:59:31.007Z,999.95
2023-02-18T17:04:30.750Z,999.95
2023-02-18T17:09:30.395Z,1000.03
2023-02-18T17:14:30.677Z,1000.11
2023-02-18T17:19:30.181Z,1000.20
2023-02-18T17:24:30.222Z,1000.33
2023-02-18T17:29:30.180Z,1000.12
2023-02-18T17:34:29.936Z,1000.45
2023-02-18T17:39:30.069Z,1000.58
2023-02-18T17:44:29.742Z,1000.52
2023-02-18T17:49:30.773Z,1000.54
2023-02-18T17:54:29.567Z,1000.72
2023-02-18T17:59:29.612Z,1000.80
2023-02-18T18:05:49.086Z,1000.81
2023-02-18T18:10:49.401Z,1001.03
2023-02-18T18:15:47.406Z,1001.12
2023-02-18T18:20:47.379Z,1000.96
2023-02-18T18:25:47.295Z,1001.13
2023-02-18T18:30:47.401Z,1001.15
2023-02-18T18:35:47.377Z,1001.31
2023-02-18T18:40:47.298Z,1001.25
2023-02-18T18:45:47.052Z,1001.50
2023-02-18T18:50:46.974Z,1001.51
2023-02-18T18:55:46.870Z,1001.39
2023-02-18T19:00:46.833Z,1001.50
2023-02-18T19:05:47.007Z,1001.56
2023-02-18T19:10:46.764Z,1001.45
2023-02-18T19:15:46.731Z,1001.43
2023-02-18T19:20:46.589Z,1001.61
2023-02-18T19:25:46.471Z,1001.51
2023-02-18T19:30:46.503Z,1001.53
2023-02-18T19:35:46.410Z,1001.54
2023-02-18T19:40:46.309Z,1001.52
2023-02-18T19:45:46.236Z,1001.66
2023-02-18T19:50:46.200Z,1001.75
2023-02-18T19:55:46.089Z,1001.75
2023-02-18T20:00:46.056Z,1001.74
2023-02-18T20:05:45.949Z,1001.78
2023-02-18T20:10:45.928Z,1001.77
2023-02-18T20:15:45.987Z,1001.84
2023-02-18T20:20:45.789Z,1001.91
2023-02-18T20:25:45.734Z,1001.85
2023-02-18T20:30:45.698Z,1001.92
2023-02-18T20:35:45.708Z,1001.92
2023-02-18T20:40:45.622Z,1001.92
2023-02-18T20:45:45.663Z,1001.94
2023-02-18T20:50:45.401Z,1002.05
2023-02-18T20:55:45.352Z,1002.11
2023-02-18T21:00:45.308Z,1002.05
2023-02-18T21:05:45.181Z,1001.95
2023-02-18T21:10:45.121Z,1001.89
2023-02-18T21:15:45.075Z,1002.02
2023-02-18T21:20:44.975Z,1002.08
2023-02-18T21:25:45.087Z,1001.93
2023-02-18T21:30:44.861Z,1001.95
2023-02-18T21:35:44.958Z,1002.13
2023-02-18T21:40:44.690Z,1001.97
2023-02-18T21:45:44.694Z,1001.99
2023-02-18T21:50:44.690Z,1001.92
2023-02-18T21:55:55.310Z,1002.01
2023-02-18T22:00:45.555Z,1002.04
2023-02-18T22:05:44.457Z,1002.04
2023-02-18T22:10:44.366Z,1001.99
2023-02-18T22:15:44.327Z,1002.03
2023-02-18T22:20:44.306Z,1002.05
2023-02-18T22:25:44.148Z,1002.06
2023-02-18T22:30:44.120Z,1001.95
2023-02-18T22:35:44.261Z,1002.03
2023-02-18T22:40:43.902Z,1002.02
2023-02-18T22:45:43.877Z,1001.98
2023-02-18T22:50:43.870Z,1002.08
2023-02-18T22:55:43.708Z,1002.05
2023-02-18T23:00:43.753Z,1002.12
2023-02-18T23:05:50.965Z,1002.12
2023-02-18T23:10:43.544Z,1002.07
2023-02-18T23:15:43.468Z,1002.10
2023-02-18T23:20:43.374Z,1002.12
2023-02-18T23:25:43.406Z,1002.03
2023-02-18T23:30:43.385Z,1002.00
2023-02-18T23:35:43.540Z,1001.96
2023-02-18T23:40:43.141Z,1002.00
2023-02-18T23:45:43.142Z,1001.98
2023-02-18T23:50:43.058Z,1001.95
2023-02-18T23:55:42.922Z,1001.83
